Time;durP1;ratioP1;P1;durP2;ratioP2;P2;SDS_P1;SDS_P2;PMS_P1;PMS_P2;Temp;Humidity;BMP_temperature;BMP_pressure;BME280_temperature;BME280_humidity;BME280_pressure;Samples;Min_cycle;Max_cycle;Signal;HPM_P1;HPM_P2
2021/08/08 00:00:34;;;;;;;;;;;;;;;22.88;42.38;98894.97;5073124;28;19917;-78
2021/08/08 00:02:59;;;;;;;;;;;;;;;22.85;42.42;98891.00;5073202;28;19973;-78
2021/08/08 00:05:24;;;;;;;;;;;;;;;22.85;42.61;98893.72;5072948;28;19924;-78
2021/08/08 00:07:50;;;;;;;;;;;;;;;22.83;42.49;98893.31;5072003;28;19972;-78
2021/08/08 00:10:15;;;;;;;;;;;;;;;22.80;42.50;98892.13;5071530;28;19920;-78
2021/08/08 00:12:41;;;;;;;;;;;;;;;22.79;42.47;98890.53;5073039;28;20050;-78
2021/08/08 00:15:08;;;;;;;;;;;;;;;22.77;42.79;98886.59;5073055;28;20457;-77
2021/08/08 00:17:33;;;;;;;;;;;;;;;22.76;42.83;98893.97;5071339;28;19917;-77
2021/08/08 00:19:58;;;;;;;;;;;;;;;22.74;42.89;98895.47;5073249;28;19917;-78
2021/08/08 00:22:23;;;;;;;;;;;;;;;22.71;43.00;98886.88;5073066;28;20408;-78
2021/08/08 00:24:49;;;;;;;;;;;;;;;22.70;43.20;98890.78;5072700;28;19924;-78
2021/08/08 00:27:14;;;;;;;;;;;;;;;22.66;43.17;98891.84;5071372;28;19927;-78
2021/08/08 00:29:39;;;;;;;;;;;;;;;22.61;43.14;98897.59;5071216;28;20380;-77
2021/08/08 00:32:05;;;;;;;;;;;;;;;22.58;43.08;98895.59;5072621;28;20017;-77
2021/08/08 00:34:30;;;;;;;;;;;;;;;22.54;43.37;98893.59;5072800;28;19954;-78
2021/08/08 00:36:56;;;;;;;;;;;;;;;22.49;43.44;98891.13;5072264;28;19916;-78
2021/08/08 00:39:21;;;;;;;;;;;;;;;22.47;43.47;98890.72;5071940;28;19920;-78
2021/08/08 00:41:46;;;;;;;;;;;;;;;22.44;43.50;98894.16;5072444;28;19917;-77
2021/08/08 00:44:12;;;;;;;;;;;;;;;22.43;43.75;98899.97;5072323;28;19917;-77
2021/08/08 00:46:37;;;;;;;;;;;;;;;22.42;43.77;98901.13;5071991;28;19916;-78
2021/08/08 00:49:02;;;;;;;;;;;;;;;22.41;43.87;98896.81;5071833;28;19916;-77
2021/08/08 00:51:28;;;;;;;;;;;;;;;22.38;44.06;98896.38;5071961;28;20335;-77
2021/08/08 00:53:54;;;;;;;;;;;;;;;22.38;44.17;98892.88;5072353;28;19921;-77
2021/08/08 00:56:19;;;;;;;;;;;;;;;22.38;44.24;98899.09;5071973;28;19923;-77
2021/08/08 00:58:44;;;;;;;;;;;;;;;22.38;44.34;98892.88;5070921;28;19923;-77
2021/08/08 01:01:11;;;;;;;;;;;;;;;22.36;44.41;98898.66;5072021;28;19916;-77
2021/08/08 01:03:39;;;;;;;;;;;;;;;22.35;44.55;98899.00;5070923;28;20407;-77
2021/08/08 01:06:15;;;;;;;;;;;;;;;22.35;44.68;98899.00;5072263;28;19920;-77
2021/08/08 01:08:47;;;;;;;;;;;;;;;22.32;44.66;98897.78;5071799;28;19916;-77
2021/08/08 01:11:13;;;;;;;;;;;;;;;22.32;44.56;98895.06;5071798;28;20315;-77
2021/08/08 01:13:40;;;;;;;;;;;;;;;22.33;44.56;98888.47;5070100;28;20040;-77
2021/08/08 01:16:07;;;;;;;;;;;;;;;22.31;44.52;98892.69;5070697;28;19923;-77
2021/08/08 01:18:32;;;;;;;;;;;;;;;22.28;44.39;98885.25;5071706;28;19959;-77
2021/08/08 01:20:58;;;;;;;;;;;;;;;22.23;44.68;98899.94;5071994;28;19963;-79
2021/08/08 01:23:24;;;;;;;;;;;;;;;22.22;44.71;98898.38;5070419;28;19920;-77
2021/08/08 01:25:49;;;;;;;;;;;;;;;22.20;44.72;98892.47;5070573;28;20394;-77
2021/08/08 01:28:15;;;;;;;;;;;;;;;22.16;44.67;98897.84;5071307;28;19921;-77
2021/08/08 01:30:40;;;;;;;;;;;;;;;22.15;44.64;98901.72;5070494;28;19916;-77
2021/08/08 01:33:07;;;;;;;;;;;;;;;22.12;44.74;98899.72;5070382;28;19999;-77
2021/08/08 01:35:32;;;;;;;;;;;;;;;22.12;44.73;98897.00;5071338;28;20311;-77
2021/08/08 01:37:58;;;;;;;;;;;;;;;22.09;44.76;98894.19;5070628;28;19916;-77
2021/08/08 01:40:26;;;;;;;;;;;;;;;22.06;44.78;98899.19;5070324;28;20074;-77
2021/08/08 01:42:54;;;;;;;;;;;;;;;22.05;44.80;98899.56;5071628;28;19916;-77
2021/08/08 01:45:20;;;;;;;;;;;;;;;22.02;44.61;98895.63;5070554;28;19917;-77
2021/08/08 01:47:47;;;;;;;;;;;;;;;22.00;44.74;98897.13;5070052;28;19916;-77
2021/08/08 01:50:13;;;;;;;;;;;;;;;21.95;44.76;98892.75;5071585;28;19966;-77
2021/08/08 01:52:38;;;;;;;;;;;;;;;21.93;44.78;98888.81;5071665;28;20346;-77
2021/08/08 01:55:04;;;;;;;;;;;;;;;21.89;44.98;98888.72;5070288;28;20353;-78
2021/08/08 01:57:29;;;;;;;;;;;;;;;21.86;44.89;98881.25;5071118;28;19966;-79
2021/08/08 01:59:54;;;;;;;;;;;;;;;21.81;44.91;98887.00;5071861;28;19916;-77
2021/08/08 02:02:20;;;;;;;;;;;;;;;21.77;45.03;98878.75;5069965;28;19916;-77
2021/08/08 02:04:45;;;;;;;;;;;;;;;21.72;45.04;98876.31;5071433;28;19917;-77
2021/08/08 02:07:14;;;;;;;;;;;;;;;21.69;45.21;98871.56;5071419;28;19916;-77
2021/08/08 02:09:39;;;;;;;;;;;;;;;21.63;45.44;98876.50;5070913;28;19923;-77
2021/08/08 02:12:05;;;;;;;;;;;;;;;21.60;45.45;98882.63;5069879;28;19917;-77
2021/08/08 02:14:30;;;;;;;;;;;;;;;21.56;45.38;98882.56;5071441;28;19917;-79
2021/08/08 02:16:56;;;;;;;;;;;;;;;21.52;45.45;98886.31;5071307;28;19917;-79
2021/08/08 02:19:21;;;;;;;;;;;;;;;21.48;45.59;98882.72;5070218;28;19916;-79
2021/08/08 02:21:46;;;;;;;;;;;;;;;21.43;45.90;98892.75;5069808;28;19975;-79
2021/08/08 02:24:12;;;;;;;;;;;;;;;21.38;45.82;98890.28;5069892;28;19917;-79
2021/08/08 02:26:37;;;;;;;;;;;;;;;21.34;46.26;98885.91;5072550;28;19986;-79
2021/08/08 02:29:03;;;;;;;;;;;;;;;21.26;46.25;98888.44;5073776;28;19924;-79
2021/08/08 02:31:38;;;;;;;;;;;;;;;21.18;46.16;98889.41;5075162;28;20131;-79
2021/08/08 02:34:04;;;;;;;;;;;;;;;21.13;46.42;98895.13;5073734;28;19916;-79
2021/08/08 02:36:29;;;;;;;;;;;;;;;21.09;46.72;98905.09;5074749;28;19942;-79
2021/08/08 02:38:54;;;;;;;;;;;;;;;21.02;46.96;98902.19;5074554;28;19965;-79
2021/08/08 02:41:19;;;;;;;;;;;;;;;20.92;47.00;98898.06;5073404;28;20390;-78
2021/08/08 02:43:45;;;;;;;;;;;;;;;20.87;47.23;98906.47;5074301;28;19916;-78
2021/08/08 02:46:10;;;;;;;;;;;;;;;20.85;47.21;98911.47;5074538;28;19923;-78
2021/08/08 02:48:35;;;;;;;;;;;;;;;20.82;46.91;98895.88;5072785;28;19923;-79
2021/08/08 02:51:01;;;;;;;;;;;;;;;20.82;47.17;98907.53;5073269;28;20388;-79
2021/08/08 02:53:26;;;;;;;;;;;;;;;20.85;47.06;98898.69;5072881;28;19916;-79
2021/08/08 02:55:51;;;;;;;;;;;;;;;20.89;47.69;98907.72;5074310;28;19923;-79
2021/08/08 02:58:16;;;;;;;;;;;;;;;20.90;47.62;98913.94;5074653;28;20062;-79
2021/08/08 03:00:42;;;;;;;;;;;;;;;20.92;47.35;98911.66;5072783;28;19916;-79
2021/08/08 03:03:07;;;;;;;;;;;;;;;20.94;47.29;98907.44;5074138;28;20280;-79
2021/08/08 03:05:32;;;;;;;;;;;;;;;20.99;47.23;98905.63;5072621;28;19923;-79
2021/08/08 03:07:57;;;;;;;;;;;;;;;21.00;47.16;98907.22;5073007;28;20017;-79
2021/08/08 03:10:23;;;;;;;;;;;;;;;21.02;47.34;98911.16;5073252;28;20363;-79
2021/08/08 03:12:49;;;;;;;;;;;;;;;21.04;47.16;98908.09;5073962;28;20020;-79
2021/08/08 03:15:14;;;;;;;;;;;;;;;21.05;47.18;98912.38;5074385;28;20372;-79
2021/08/08 03:17:39;;;;;;;;;;;;;;;21.06;47.29;98916.69;5074179;28;19916;-79
2021/08/08 03:20:05;;;;;;;;;;;;;;;21.08;47.48;98917.09;5074020;28;20014;-78
2021/08/08 03:22:30;;;;;;;;;;;;;;;21.06;47.53;98922.91;5073587;28;20102;-77
2021/08/08 03:24:55;;;;;;;;;;;;;;;21.05;47.36;98923.25;5074438;28;20437;-77
2021/08/08 03:27:21;;;;;;;;;;;;;;;21.06;47.65;98924.84;5072531;28;20062;-77
2021/08/08 03:29:46;;;;;;;;;;;;;;;21.06;47.81;98930.28;5072110;28;19924;-78
2021/08/08 03:32:11;;;;;;;;;;;;;;;21.09;47.47;98935.00;5072619;28;19923;-78
2021/08/08 03:34:36;;;;;;;;;;;;;;;21.23;47.63;98937.31;5072437;28;19924;-77
2021/08/08 03:37:02;;;;;;;;;;;;;;;21.42;47.26;98947.47;5071665;28;19916;-77
2021/08/08 03:39:27;;;;;;;;;;;;;;;21.70;46.92;98957.50;5072429;28;19924;-78
2021/08/08 03:41:53;;;;;;;;;;;;;;;22.03;46.26;98956.31;5072104;28;19923;-78
2021/08/08 03:44:18;;;;;;;;;;;;;;;22.42;45.88;98970.00;5073595;28;19916;-78
2021/08/08 03:46:43;;;;;;;;;;;;;;;22.81;45.09;98964.59;5072129;28;20019;-78
2021/08/08 03:49:11;;;;;;;;;;;;;;;23.23;44.04;98965.75;5072174;28;20023;-78
2021/08/08 03:51:36;;;;;;;;;;;;;;;23.68;42.94;98966.09;5073363;28;19917;-78
2021/08/08 03:54:02;;;;;;;;;;;;;;;24.11;42.23;98963.25;5072048;28;20024;-78
2021/08/08 03:56:27;;;;;;;;;;;;;;;24.55;40.82;98965.34;5073186;28;19917;-78
2021/08/08 03:58:52;;;;;;;;;;;;;;;24.98;39.84;98962.34;5072936;28;19936;-78
2021/08/08 04:01:17;;;;;;;;;;;;;;;25.45;39.15;98972.97;5071673;28;19916;-78
2021/08/08 04:03:43;;;;;;;;;;;;;;;25.89;38.37;98966.66;5071604;28;19917;-78
2021/08/08 04:06:08;;;;;;;;;;;;;;;26.32;37.92;98975.13;5071849;28;19959;-78
2021/08/08 04:08:33;;;;;;;;;;;;;;;26.79;36.88;98974.56;5073118;28;20019;-78
2021/08/08 04:10:59;;;;;;;;;;;;;;;27.23;36.06;98976.22;5072828;28;19952;-79
2021/08/08 04:13:24;;;;;;;;;;;;;;;27.65;35.45;98982.16;5073047;28;19979;-79
2021/08/08 04:15:49;;;;;;;;;;;;;;;28.10;34.66;98970.75;5071360;28;19921;-79
2021/08/08 04:18:14;;;;;;;;;;;;;;;28.54;33.94;98980.41;5071554;28;20353;-79
2021/08/08 04:20:40;;;;;;;;;;;;;;;28.98;33.48;98978.25;5072744;28;20016;-79
2021/08/08 04:23:07;;;;;;;;;;;;;;;29.44;32.46;98978.34;5071711;28;19924;-79
2021/08/08 04:25:32;;;;;;;;;;;;;;;29.89;31.66;98983.06;5072659;28;19917;-79
2021/08/08 04:27:58;;;;;;;;;;;;;;;30.30;30.86;98983.03;5071037;28;19921;-79
2021/08/08 04:30:23;;;;;;;;;;;;;;;30.66;29.52;98976.31;5071305;28;20032;-79
2021/08/08 04:32:48;;;;;;;;;;;;;;;31.01;29.48;98993.59;5072523;28;19927;-79
2021/08/08 04:35:14;;;;;;;;;;;;;;;31.30;29.06;98993.22;5071202;28;19978;-79
2021/08/08 04:37:39;;;;;;;;;;;;;;;31.59;28.29;98989.97;5071099;28;20374;-79
2021/08/08 04:40:05;;;;;;;;;;;;;;;31.85;28.01;98990.34;5073175;28;19916;-79
2021/08/08 04:42:34;;;;;;;;;;;;;;;32.11;27.57;99001.75;5071404;28;19920;-79
2021/08/08 04:45:00;;;;;;;;;;;;;;;32.37;27.49;98997.31;5071203;28;19956;-79
2021/08/08 04:47:25;;;;;;;;;;;;;;;32.60;27.14;99001.97;5070992;28;19955;-79
2021/08/08 04:49:50;;;;;;;;;;;;;;;32.82;26.91;98999.53;5070169;28;20311;-79
2021/08/08 04:52:15;;;;;;;;;;;;;;;33.07;26.68;99003.75;5071096;28;19916;-80
2021/08/08 04:54:41;;;;;;;;;;;;;;;33.26;26.37;99004.13;5072159;28;19924;-80
2021/08/08 04:57:06;;;;;;;;;;;;;;;33.47;25.97;99000.06;5070944;28;20359;-80
2021/08/08 04:59:31;;;;;;;;;;;;;;;33.65;25.43;99013.50;5070918;28;19917;-80
2021/08/08 05:01:56;;;;;;;;;;;;;;;33.80;25.18;99011.13;5070491;28;20023;-80
2021/08/08 05:04:22;;;;;;;;;;;;;;;33.94;24.84;99010.03;5070980;28;19916;-80
2021/08/08 05:06:47;;;;;;;;;;;;;;;34.06;24.92;99019.59;5070176;28;19958;-80
2021/08/08 05:09:12;;;;;;;;;;;;;;;34.20;24.61;99024.00;5070513;28;19965;-80
2021/08/08 05:11:38;;;;;;;;;;;;;;;34.30;24.42;99020.94;5071635;28;19924;-80
2021/08/08 05:14:03;;;;;;;;;;;;;;;34.44;24.70;99016.22;5072375;28;19924;-80
2021/08/08 05:16:28;;;;;;;;;;;;;;;34.56;24.84;99009.91;5070560;28;19923;-80
2021/08/08 05:18:54;;;;;;;;;;;;;;;34.72;24.43;99011.81;5070268;28;19931;-79
2021/08/08 05:21:19;;;;;;;;;;;;;;;34.82;24.50;99011.97;5071990;28;20349;-79
2021/08/08 05:23:44;;;;;;;;;;;;;;;34.94;24.38;99008.44;5071663;28;19916;-79
2021/08/08 05:26:09;;;;;;;;;;;;;;;35.10;24.37;99015.88;5070393;28;20023;-79
2021/08/08 05:28:35;;;;;;;;;;;;;;;35.19;24.14;99018.00;5069918;28;20452;-79
2021/08/08 05:31:00;;;;;;;;;;;;;;;35.36;24.32;99015.88;5072018;28;20003;-79
2021/08/08 05:33:26;;;;;;;;;;;;;;;35.48;24.19;99011.53;5071909;28;19916;-79
2021/08/08 05:35:52;;;;;;;;;;;;;;;35.57;24.10;99008.84;5070185;28;19924;-79
2021/08/08 05:38:17;;;;;;;;;;;;;;;35.72;23.40;99021.03;5070493;28;19916;-79
2021/08/08 05:40:42;;;;;;;;;;;;;;;35.89;23.34;99009.78;5070226;28;19916;-79
2021/08/08 05:43:08;;;;;;;;;;;;;;;36.03;23.09;99014.06;5070188;28;20407;-80
2021/08/08 05:45:33;;;;;;;;;;;;;;;36.12;23.42;99013.38;5070278;28;19921;-80
2021/08/08 05:47:58;;;;;;;;;;;;;;;36.20;23.08;99014.66;5069844;28;19916;-80
2021/08/08 05:50:24;;;;;;;;;;;;;;;36.29;23.25;99011.16;5070225;28;19920;-80
2021/08/08 05:52:50;;;;;;;;;;;;;;;36.28;22.91;99013.19;5071634;28;20374;-80
2021/08/08 05:55:15;;;;;;;;;;;;;;;36.34;22.79;99014.16;5071171;28;20445;-80
2021/08/08 05:57:41;;;;;;;;;;;;;;;36.47;22.65;99016.13;5070118;28;20376;-80
2021/08/08 06:00:06;;;;;;;;;;;;;;;36.54;21.89;99024.22;5071219;28;19927;-80
2021/08/08 06:02:32;;;;;;;;;;;;;;;36.45;21.57;99016.56;5074180;28;19999;-80
2021/08/08 06:04:57;;;;;;;;;;;;;;;36.36;22.21;99022.81;5073995;28;20291;-80
2021/08/08 06:07:22;;;;;;;;;;;;;;;36.41;21.87;99015.91;5074104;28;19916;-80
2021/08/08 06:09:47;;;;;;;;;;;;;;;36.47;21.42;99014.09;5073749;28;20007;-80
2021/08/08 06:12:13;;;;;;;;;;;;;;;36.54;20.94;99016.63;5073968;28;19922;-80
2021/08/08 06:14:38;;;;;;;;;;;;;;;36.63;20.82;99015.88;5073479;28;20411;-80
2021/08/08 06:17:04;;;;;;;;;;;;;;;36.64;20.49;99016.69;5074048;28;19920;-80
2021/08/08 06:19:29;;;;;;;;;;;;;;;36.64;20.69;99019.47;5073735;28;20457;-79
2021/08/08 06:21:55;;;;;;;;;;;;;;;36.54;20.73;99022.19;5073712;28;19916;-79
2021/08/08 06:24:20;;;;;;;;;;;;;;;36.49;20.97;99013.66;5073392;28;20430;-81
2021/08/08 06:26:45;;;;;;;;;;;;;;;36.49;20.73;99014.44;5073273;28;19921;-81
2021/08/08 06:29:10;;;;;;;;;;;;;;;36.48;20.97;99018.44;5073489;28;19916;-80
2021/08/08 06:31:36;;;;;;;;;;;;;;;36.46;21.47;99023.72;5073621;28;19942;-80
2021/08/08 06:34:01;;;;;;;;;;;;;;;36.47;21.41;99016.88;5073372;28;19917;-81
2021/08/08 06:36:27;;;;;;;;;;;;;;;36.43;21.75;99021.81;5073463;28;19923;-80
2021/08/08 06:38:53;;;;;;;;;;;;;;;36.39;21.51;99018.41;5073287;28;20077;-81
2021/08/08 06:41:18;;;;;;;;;;;;;;;36.31;21.58;99014.28;5073535;28;19920;-81
2021/08/08 06:43:43;;;;;;;;;;;;;;;36.10;21.66;99013.06;5074498;28;20384;-80
2021/08/08 06:46:08;;;;;;;;;;;;;;;35.94;22.32;99012.00;5074940;28;19923;-81
2021/08/08 06:48:35;;;;;;;;;;;;;;;35.73;22.21;99017.03;5074405;28;20023;-80
2021/08/08 06:51:01;;;;;;;;;;;;;;;35.57;22.36;99011.63;5072492;28;19925;-80
2021/08/08 06:53:26;;;;;;;;;;;;;;;35.41;22.57;99013.34;5073040;28;19917;-80
2021/08/08 06:55:51;;;;;;;;;;;;;;;35.29;22.72;99019.66;5072855;28;19923;-80
2021/08/08 07:01:19;;;;;;;;;;;;;;;34.75;22.55;99012.94;5074184;28;19938;-80
2021/08/08 07:03:45;;;;;;;;;;;;;;;34.46;22.81;99019.31;5074201;28;19920;-80
2021/08/08 07:06:10;;;;;;;;;;;;;;;34.18;23.57;99020.88;5073045;28;20331;-81
2021/08/08 07:08:35;;;;;;;;;;;;;;;34.04;23.51;99014.50;5072848;28;19917;-81
2021/08/08 07:11:00;;;;;;;;;;;;;;;33.82;24.00;99022.56;5072513;28;19917;-81
2021/08/08 07:13:26;;;;;;;;;;;;;;;33.66;24.35;99024.16;5072190;28;19970;-81
2021/08/08 07:15:51;;;;;;;;;;;;;;;33.59;24.31;99029.09;5072504;28;20360;-80
2021/08/08 07:18:16;;;;;;;;;;;;;;;33.46;24.16;99027.03;5072398;28;19974;-81
2021/08/08 07:20:41;;;;;;;;;;;;;;;33.29;24.14;99028.19;5072523;28;19963;-81
2021/08/08 07:23:07;;;;;;;;;;;;;;;33.08;24.32;99033.03;5072630;28;20357;-80
2021/08/08 07:25:32;;;;;;;;;;;;;;;32.88;24.12;99027.53;5073860;28;19916;-81
2021/08/08 07:27:57;;;;;;;;;;;;;;;32.71;24.87;99023.91;5071900;28;19920;-80
2021/08/08 07:30:23;;;;;;;;;;;;;;;32.61;24.99;99022.13;5072168;28;19917;-81
2021/08/08 07:32:48;;;;;;;;;;;;;;;32.45;25.17;99025.63;5073531;28;19927;-79
2021/08/08 07:35:13;;;;;;;;;;;;;;;32.32;25.07;99040.06;5072516;28;20025;-80
2021/08/08 07:37:38;;;;;;;;;;;;;;;32.11;25.61;99030.16;5072447;28;20334;-79
2021/08/08 07:40:04;;;;;;;;;;;;;;;31.99;26.06;99031.56;5073320;28;19920;-80
2021/08/08 07:42:29;;;;;;;;;;;;;;;31.92;25.95;99029.72;5072456;28;19916;-80
2021/08/08 07:44:54;;;;;;;;;;;;;;;31.84;26.16;99021.97;5071852;28;19955;-81
2021/08/08 07:47:20;;;;;;;;;;;;;;;31.76;26.16;99032.34;5071913;28;20393;-80
2021/08/08 07:49:45;;;;;;;;;;;;;;;31.67;25.84;99030.13;5071765;28;19917;-79
2021/08/08 07:52:10;;;;;;;;;;;;;;;31.54;25.76;99031.91;5072031;28;19917;-80
2021/08/08 07:54:35;;;;;;;;;;;;;;;31.52;26.21;99034.28;5071929;28;19995;-80
2021/08/08 07:57:01;;;;;;;;;;;;;;;31.55;25.40;99030.72;5073249;28;19917;-79
2021/08/08 07:59:26;;;;;;;;;;;;;;;31.55;25.11;99033.47;5071876;28;19921;-79
2021/08/08 08:01:51;;;;;;;;;;;;;;;31.58;25.29;99035.41;5071686;28;19967;-79
2021/08/08 08:04:19;;;;;;;;;;;;;;;31.59;26.07;99023.94;5071642;28;19916;-80
2021/08/08 08:06:44;;;;;;;;;;;;;;;31.67;25.70;99026.59;5071742;28;19945;-80
2021/08/08 08:09:10;;;;;;;;;;;;;;;31.75;26.05;99025.25;5071701;28;20011;-80
2021/08/08 08:11:38;;;;;;;;;;;;;;;31.82;24.93;99019.63;5071950;28;20330;-79
2021/08/08 08:14:03;;;;;;;;;;;;;;;31.73;24.33;99022.16;5072841;28;20320;-79
2021/08/08 08:16:29;;;;;;;;;;;;;;;31.69;23.80;99019.44;5071429;28;20018;-80
2021/08/08 08:18:54;;;;;;;;;;;;;;;31.68;23.92;99020.66;5071470;28;19928;-81
2021/08/08 08:21:19;;;;;;;;;;;;;;;31.69;23.82;99024.97;5071419;28;19917;-79
2021/08/08 08:23:44;;;;;;;;;;;;;;;31.63;23.98;99018.34;5071136;28;20358;-81
2021/08/08 08:26:10;;;;;;;;;;;;;;;31.62;24.53;99017.53;5072191;28;20019;-80
2021/08/08 08:28:35;;;;;;;;;;;;;;;31.65;24.55;99018.72;5072634;28;20303;-80
2021/08/08 08:31:00;;;;;;;;;;;;;;;31.71;24.03;99022.59;5070823;28;19924;-80
2021/08/08 08:33:26;;;;;;;;;;;;;;;31.74;24.29;99018.19;5071168;28;20382;-81
2021/08/08 08:35:52;;;;;;;;;;;;;;;31.81;24.13;99017.28;5070817;28;19923;-81
2021/08/08 08:38:17;;;;;;;;;;;;;;;31.91;24.46;99022.63;5071008;28;19924;-81
2021/08/08 08:40:42;;;;;;;;;;;;;;;31.99;23.43;99019.72;5071202;28;19978;-80
2021/08/08 08:43:08;;;;;;;;;;;;;;;32.00;22.84;99022.06;5072427;28;20355;-79
2021/08/08 08:45:36;;;;;;;;;;;;;;;31.83;22.83;99015.66;5072276;28;19916;-80
2021/08/08 08:48:02;;;;;;;;;;;;;;;31.82;23.30;99019.63;5070461;28;19916;-80
2021/08/08 08:50:27;;;;;;;;;;;;;;;31.76;23.07;99016.56;5070744;28;19924;-80
2021/08/08 08:52:53;;;;;;;;;;;;;;;31.80;23.67;99013.75;5070498;28;19920;-80
2021/08/08 08:55:18;;;;;;;;;;;;;;;31.82;23.77;99016.84;5070705;28;19966;-80
2021/08/08 08:57:44;;;;;;;;;;;;;;;31.87;23.62;99007.28;5070633;28;19940;-80
2021/08/08 09:00:10;;;;;;;;;;;;;;;31.95;23.21;99014.25;5070078;28;20018;-80
2021/08/08 09:02:36;;;;;;;;;;;;;;;32.02;24.01;99011.38;5070859;28;20360;-80
2021/08/08 09:05:02;;;;;;;;;;;;;;;32.10;24.11;99006.47;5070383;28;19956;-80
2021/08/08 09:07:27;;;;;;;;;;;;;;;32.13;23.40;99008.41;5071875;28;20295;-79
2021/08/08 09:09:54;;;;;;;;;;;;;;;32.16;23.01;99007.53;5069995;28;19966;-80
2021/08/08 09:12:22;;;;;;;;;;;;;;;32.12;23.33;98997.75;5070432;28;19966;-79
2021/08/08 09:14:55;;;;;;;;;;;;;;;32.10;23.59;99006.47;5070196;28;19974;-80
2021/08/08 09:17:21;;;;;;;;;;;;;;;32.12;22.86;99012.38;5070312;28;20375;-80
2021/08/08 09:19:56;;;;;;;;;;;;;;;32.10;23.93;98998.19;5070262;28;20476;-80
2021/08/08 09:22:22;;;;;;;;;;;;;;;32.11;24.19;98999.75;5070388;28;19973;-80
2021/08/08 09:24:47;;;;;;;;;;;;;;;32.16;24.43;98990.19;5070149;28;20341;-81
2021/08/08 09:27:13;;;;;;;;;;;;;;;32.19;23.54;98992.88;5070074;28;19966;-80
2021/08/08 09:29:43;;;;;;;;;;;;;;;32.24;23.43;98986.09;5070103;28;20372;-80
2021/08/08 09:32:08;;;;;;;;;;;;;;;32.25;23.08;98982.91;5070075;28;19924;-80
2021/08/08 09:34:38;;;;;;;;;;;;;;;32.26;22.63;98983.66;5069611;28;20119;-80
2021/08/08 09:37:05;;;;;;;;;;;;;;;32.24;22.87;98986.09;5070044;28;19924;-79
2021/08/08 09:39:42;;;;;;;;;;;;;;;32.22;22.97;98982.97;5070351;28;19916;-80
2021/08/08 09:42:16;;;;;;;;;;;;;;;32.16;22.92;98979.88;5070072;28;20377;-80
2021/08/08 09:44:58;;;;;;;;;;;;;;;32.12;23.28;98978.38;5070231;28;19923;-80
2021/08/08 09:47:35;;;;;;;;;;;;;;;32.12;23.77;98981.16;5069999;28;19928;-78
2021/08/08 09:50:04;;;;;;;;;;;;;;;32.05;22.97;98982.09;5070993;28;19917;-78
2021/08/08 09:52:29;;;;;;;;;;;;;;;32.02;23.38;98975.41;5070085;28;19916;-79
2021/08/08 09:54:55;;;;;;;;;;;;;;;32.06;23.94;98970.59;5071487;28;19923;-79
2021/08/08 09:57:20;;;;;;;;;;;;;;;32.07;23.95;98968.63;5070089;28;19924;-79
2021/08/08 09:59:47;;;;;;;;;;;;;;;32.12;23.39;98970.09;5069657;28;19940;-80
2021/08/08 10:02:16;;;;;;;;;;;;;;;32.13;23.79;98961.38;5069664;28;19916;-79
2021/08/08 10:04:41;;;;;;;;;;;;;;;32.13;23.01;98961.38;5069912;28;19920;-78
2021/08/08 10:07:07;;;;;;;;;;;;;;;32.08;23.19;98957.13;5069680;28;19917;-79
2021/08/08 10:09:32;;;;;;;;;;;;;;;32.03;23.20;98956.81;5069877;28;20375;-77
2021/08/08 10:12:04;;;;;;;;;;;;;;;31.99;23.38;98956.88;5069620;28;19917;-78
2021/08/08 10:14:29;;;;;;;;;;;;;;;31.86;22.99;98955.97;5071649;28;20003;-77
2021/08/08 10:16:55;;;;;;;;;;;;;;;31.76;23.32;98954.94;5070809;28;19959;-80
2021/08/08 10:19:21;;;;;;;;;;;;;;;31.75;23.51;98959.72;5069727;28;19916;-78
2021/08/08 10:21:47;;;;;;;;;;;;;;;31.73;23.38;98958.56;5069963;28;20361;-80
2021/08/08 10:24:13;;;;;;;;;;;;;;;31.72;23.72;98957.78;5069655;28;19960;-80
2021/08/08 10:26:38;;;;;;;;;;;;;;;31.72;23.34;98954.25;5069680;28;19920;-79
2021/08/08 10:29:04;;;;;;;;;;;;;;;31.72;23.58;98951.47;5069811;28;20011;-80
2021/08/08 10:31:30;;;;;;;;;;;;;;;31.64;23.58;98947.25;5069731;28;19916;-79
2021/08/08 10:33:57;;;;;;;;;;;;;;;31.55;23.36;98950.56;5069497;28;19923;-79
2021/08/08 10:36:27;;;;;;;;;;;;;;;31.53;23.95;98945.47;5070979;28;19974;-79
2021/08/08 10:38:53;;;;;;;;;;;;;;;31.50;23.86;98943.53;5069467;28;19916;-79
2021/08/08 10:41:19;;;;;;;;;;;;;;;31.53;23.67;98936.38;5070630;28;20288;-80
2021/08/08 10:43:44;;;;;;;;;;;;;;;31.59;24.24;98932.72;5070948;28;19920;-80
2021/08/08 10:46:11;;;;;;;;;;;;;;;31.64;23.70;98931.47;5070791;28;19921;-79
2021/08/08 10:48:38;;;;;;;;;;;;;;;31.69;23.88;98930.19;5073994;28;19923;-80
2021/08/08 10:51:14;;;;;;;;;;;;;;;31.73;23.75;98928.94;5072852;28;19959;-80
2021/08/08 10:53:40;;;;;;;;;;;;;;;31.74;23.26;98936.03;5072992;28;19916;-78
2021/08/08 10:56:09;;;;;;;;;;;;;;;31.73;23.16;98931.69;5072773;28;19916;-79
2021/08/08 10:58:35;;;;;;;;;;;;;;;31.75;23.42;98932.06;5074193;28;19968;-81
2021/08/08 11:01:01;;;;;;;;;;;;;;;31.77;23.29;98935.19;5072703;28;19916;-78
2021/08/08 11:03:26;;;;;;;;;;;;;;;31.83;23.73;98931.94;5074097;28;19917;-78
2021/08/08 11:05:52;;;;;;;;;;;;;;;31.86;23.41;98923.56;5072800;28;19969;-80
2021/08/08 11:08:21;;;;;;;;;;;;;;;31.92;23.75;98918.31;5072565;28;19920;-80
2021/08/08 11:10:46;;;;;;;;;;;;;;;32.01;24.16;98915.78;5072398;28;19916;-80
2021/08/08 11:13:30;;;;;;;;;;;;;;;32.11;24.09;98922.28;5072486;28;20073;-80
2021/08/08 11:15:55;;;;;;;;;;;;;;;32.21;23.20;98910.28;5072454;28;19920;-79
2021/08/08 11:18:38;;;;;;;;;;;;;;;32.24;22.92;98919.69;5072585;28;19924;-78
2021/08/08 11:21:10;;;;;;;;;;;;;;;32.23;22.76;98916.13;5072373;28;19927;-80
2021/08/08 11:23:36;;;;;;;;;;;;;;;32.25;23.33;98915.72;5072461;28;19924;-79
2021/08/08 11:26:01;;;;;;;;;;;;;;;32.27;23.39;98918.06;5072049;28;19916;-79
2021/08/08 11:28:26;;;;;;;;;;;;;;;32.24;22.50;98923.25;5072417;28;19999;-80
2021/08/08 11:30:53;;;;;;;;;;;;;;;32.23;22.47;98912.59;5072328;28;19922;-79
2021/08/08 11:33:22;;;;;;;;;;;;;;;32.25;22.37;98908.19;5073354;28;19966;-81
2021/08/08 11:35:56;;;;;;;;;;;;;;;32.31;22.70;98911.25;5072199;28;19916;-78
2021/08/08 11:38:22;;;;;;;;;;;;;;;32.34;22.58;98913.16;5071949;28;19923;-79
2021/08/08 11:40:48;;;;;;;;;;;;;;;32.35;22.10;98908.41;5071960;28;19917;-77
2021/08/08 11:43:14;;;;;;;;;;;;;;;32.41;22.18;98915.00;5073228;28;20082;-77
2021/08/08 11:45:46;;;;;;;;;;;;;;;32.37;21.90;98903.22;5073079;28;20445;-78
2021/08/08 11:48:12;;;;;;;;;;;;;;;32.40;22.00;98908.66;5071589;28;19916;-79
2021/08/08 11:50:38;;;;;;;;;;;;;;;32.44;22.07;98897.53;5073325;28;19916;-79
2021/08/08 11:53:05;;;;;;;;;;;;;;;32.50;22.14;98903.34;5073017;28;19981;-80
2021/08/08 11:55:34;;;;;;;;;;;;;;;32.53;21.30;98897.72;5073195;28;19999;-79
2021/08/08 11:58:17;;;;;;;;;;;;;;;32.51;21.89;98897.38;5072903;28;19971;-79
2021/08/08 12:00:42;;;;;;;;;;;;;;;32.49;21.94;98891.47;5071801;28;19916;-78
2021/08/08 12:03:08;;;;;;;;;;;;;;;32.49;21.35;98897.00;5071498;28;19924;-79
2021/08/08 12:05:34;;;;;;;;;;;;;;;32.45;21.48;98895.56;5071716;28;19916;-79
2021/08/08 12:08:01;;;;;;;;;;;;;;;32.48;21.43;98886.38;5071299;28;20292;-80
2021/08/08 12:10:30;;;;;;;;;;;;;;;32.51;21.65;98888.31;5071581;28;19921;-80
2021/08/08 12:12:56;;;;;;;;;;;;;;;32.53;21.68;98883.88;5072785;28;19924;-80
2021/08/08 12:15:31;;;;;;;;;;;;;;;32.58;21.78;98888.13;5072512;28;19916;-80
2021/08/08 12:17:58;;;;;;;;;;;;;;;32.63;21.56;98878.53;5071281;28;19948;-80
2021/08/08 12:20:30;;;;;;;;;;;;;;;32.68;21.72;98881.56;5071355;28;19921;-80
2021/08/08 12:23:02;;;;;;;;;;;;;;;32.75;21.49;98866.75;5071296;28;19916;-80
2021/08/08 12:25:27;;;;;;;;;;;;;;;32.82;21.31;98876.94;5071221;28;19917;-79
2021/08/08 12:27:53;;;;;;;;;;;;;;;32.84;21.25;98872.53;5072567;28;20023;-80
2021/08/08 12:30:18;;;;;;;;;;;;;;;32.84;20.81;98869.75;5070930;28;19967;-79
2021/08/08 12:32:44;;;;;;;;;;;;;;;32.82;20.78;98874.94;5071147;28;20364;-79
2021/08/08 12:35:11;;;;;;;;;;;;;;;32.82;21.12;98863.84;5070890;28;20387;-79
2021/08/08 12:37:37;;;;;;;;;;;;;;;32.79;21.10;98873.03;5071077;28;19917;-79
2021/08/08 12:40:13;;;;;;;;;;;;;;;32.84;21.06;98877.28;5072085;28;20350;-79
2021/08/08 12:42:38;;;;;;;;;;;;;;;32.86;21.06;98875.66;5070988;28;20023;-78
2021/08/08 12:45:11;;;;;;;;;;;;;;;32.86;21.06;98866.53;5070665;28;20418;-78